Time;durP1;ratioP1;P1;durP2;ratioP2;P2;SDS_P1;SDS_P2;PMS_P1;PMS_P2;Temp;Humidity;BMP_temperature;BMP_pressure;BME280_temperature;BME280_humidity;BME280_pressure;Samples;Min_cycle;Max_cycle;Signal;HPM_P1;HPM_P2
2022/01/03 00:00:14;;;;;;;;;4.00;4.00;;;;;15.42;58.97;101344.72;2048340;28;48174;-59
2022/01/03 00:01:20;;;;;;;;;4.75;3.25;;;;;15.42;58.82;101343.84;2050173;28;47850;-61
2022/01/03 00:02:26;;;;;;;;;2.25;2.25;;;;;15.42;58.55;101342.03;2052530;28;46905;-59
2022/01/03 00:03:26;;;;;;;;;3.75;2.50;;;;;15.41;58.55;101353.66;2050457;28;47362;-60
2022/01/03 00:04:26;;;;;;;;;5.67;3.00;;;;;15.41;58.82;101344.78;2051009;28;46782;-60
2022/01/03 00:05:27;;;;;;;;;3.33;2.33;;;;;15.40;59.10;101345.69;2056042;28;47254;-60
2022/01/03 00:06:28;;;;;;;;;2.67;2.00;;;;;15.40;58.60;101365.28;2045215;28;47296;-60
2022/01/03 00:07:29;;;;;;;;;2.00;0.00;;;;;15.39;59.19;101347.50;2050146;28;48411;-60
2022/01/03 00:08:29;;;;;;;;;2.67;2.67;;;;;15.39;58.81;101360.88;2053964;28;47041;-59
2022/01/03 00:09:32;;;;;;;;;1.67;1.67;;;;;15.38;58.93;101356.44;2051700;28;46852;-61
2022/01/03 00:10:34;;;;;;;;;3.00;1.50;;;;;15.37;58.64;101343.97;2057189;28;47379;-60
2022/01/03 00:11:35;;;;;;;;;4.25;1.75;;;;;15.38;58.92;101340.41;2045318;28;48643;-59
2022/01/03 00:12:37;;;;;;;;;3.00;3.00;;;;;15.39;58.80;101349.28;2050343;28;45914;-60
2022/01/03 00:13:42;;;;;;;;;2.00;2.00;;;;;15.39;58.47;101341.28;2052771;28;47559;-60
2022/01/03 00:14:43;;;;;;;;;6.25;3.00;;;;;15.39;59.04;101351.97;2052193;28;47780;-61
2022/01/03 00:15:44;;;;;;;;;2.00;2.00;;;;;15.38;58.96;101356.44;2051463;28;47357;-59
2022/01/03 00:16:44;;;;;;;;;4.00;3.00;;;;;15.37;58.53;101343.97;2053454;28;47202;-60
2022/01/03 00:17:46;;;;;;;;;4.33;2.33;;;;;15.37;58.87;101348.44;2053465;28;48406;-59
2022/01/03 00:18:48;;;;;;;;;4.75;3.25;;;;;15.37;58.59;101354.66;2052264;28;48080;-58
2022/01/03 00:19:48;;;;;;;;;2.50;2.00;;;;;15.36;59.18;101344.03;2054601;28;47860;-61
2022/01/03 00:20:59;;;;;;;;;7.33;4.33;;;;;15.35;59.10;101345.81;2054871;28;47452;-60
2022/01/03 00:22:05;;;;;;;;;5.00;4.25;;;;;15.36;58.71;101352.91;2051850;28;47758;-60
2022/01/03 00:23:09;;;;;;;;;4.25;2.75;;;;;15.35;58.98;101361.88;2054420;28;47664;-60
2022/01/03 00:24:11;;;;;;;;;4.75;4.50;;;;;15.35;58.55;101351.16;2050220;28;48252;-60
2022/01/03 00:25:16;;;;;;;;;4.75;3.00;;;;;15.35;59.18;101348.50;2050881;28;47026;-60
2022/01/03 00:26:24;;;;;;;;;3.75;2.75;;;;;15.34;58.91;101352.09;2056211;28;48286;-60
2022/01/03 00:27:35;;;;;;;;;7.75;3.50;;;;;15.33;58.60;101358.38;2090075;28;47302;-60
2022/01/03 00:29:19;;;;;;;;;3.75;3.00;;;;;15.32;58.76;101360.16;2088828;27;47392;-60
2022/01/03 00:30:21;;;;;;;;;6.75;2.75;;;;;15.31;58.67;101361.09;2079029;28;47311;-59
2022/01/03 00:31:32;;;;;;;;;3.00;3.00;;;;;15.33;58.71;101369.06;2079128;28;48031;-60
2022/01/03 00:32:37;;;;;;;;;2.50;1.75;;;;;15.32;59.04;101367.31;2068694;28;48143;-59
2022/01/03 00:33:39;;;;;;;;;3.50;2.25;;;;;15.32;59.12;101367.31;2059797;28;47526;-62
2022/01/03 00:34:40;;;;;;;;;2.25;2.25;;;;;15.32;59.19;101360.16;2054016;28;47520;-60
2022/01/03 00:35:42;;;;;;;;;2.75;2.75;;;;;15.31;59.01;101349.53;2059090;28;46421;-61
2022/01/03 00:36:49;;;;;;;;;3.00;2.25;;;;;15.31;58.88;101357.53;2076626;27;47688;-61
2022/01/03 00:37:50;;;;;;;;;0.25;0.00;;;;;15.31;58.79;101360.22;2071047;27;47364;-60
2022/01/03 00:38:51;;;;;;;;;3.00;3.00;;;;;15.30;58.90;101369.16;2096928;27;47480;-60
2022/01/03 00:39:54;;;;;;;;;2.50;2.25;;;;;15.30;58.93;101369.16;2100566;27;47253;-59
2022/01/03 00:40:55;;;;;;;;;5.00;4.00;;;;;15.29;58.94;101362.06;2081703;27;47428;-60
2022/01/03 00:41:58;;;;;;;;;2.33;2.33;;;;;15.29;58.62;101370.97;2087914;28;47182;-60
2022/01/03 00:42:59;;;;;;;;;3.50;2.25;;;;;15.28;58.77;101371.91;2075441;27;48111;-60
2022/01/03 00:43:59;;;;;;;;;2.67;2.33;;;;;15.28;58.86;101373.69;2074541;27;47394;-60
2022/01/03 00:45:00;;;;;;;;;3.33;2.00;;;;;15.28;59.21;101376.38;2056024;28;47173;-61
2022/01/03 00:46:00;;;;;;;;;3.00;2.75;;;;;15.26;58.75;101384.44;2054539;28;48291;-61
2022/01/03 00:47:01;;;;;;;;;2.67;2.00;;;;;15.24;58.76;101375.56;2094858;28;48137;-60
2022/01/03 00:48:06;;;;;;;;;6.00;2.33;;;;;15.24;58.73;101388.94;2079346;27;47340;-61
2022/01/03 00:49:07;;;;;;;;;4.75;3.75;;;;;15.25;58.99;101379.13;2068147;28;47030;-60
2022/01/03 00:50:10;;;;;;;;;1.67;1.67;;;;;15.23;59.18;101372.94;2062396;28;47312;-59
2022/01/03 00:51:19;;;;;;;;;4.25;2.75;;;;;15.22;58.92;101374.75;2070673;28;47421;-60
2022/01/03 00:52:19;;;;;;;;;4.50;4.50;;;;;15.24;59.40;101364.00;2085450;27;47214;-61
2022/01/03 00:53:20;;;;;;;;;1.00;1.00;;;;;15.23;58.80;101368.47;2090952;27;47656;-59
2022/01/03 00:54:20;;;;;;;;;5.33;5.00;;;;;15.24;59.38;101364.00;2066629;28;47996;-59
2022/01/03 00:55:21;;;;;;;;;5.00;3.33;;;;;15.24;58.78;101369.34;2061144;27;46982;-59
2022/01/03 00:56:36;;;;;;;;;5.67;3.33;;;;;15.24;58.99;101364.88;2081908;28;46107;-60
2022/01/03 00:58:02;;;;;;;;;3.25;3.00;;;;;15.23;59.20;101363.13;2078548;27;47388;-60
2022/01/03 00:59:12;;;;;;;;;7.50;2.75;;;;;15.24;58.99;101369.34;2072828;28;47381;-59
2022/01/03 01:00:13;;;;;;;;;3.00;2.50;;;;;15.23;59.04;101363.13;2066895;27;47476;-59
2022/01/03 01:01:17;;;;;;;;;4.50;3.75;;;;;15.22;58.86;101358.69;2084948;28;46162;-59
2022/01/03 01:02:18;;;;;;;;;3.00;2.50;;;;;15.23;59.21;101368.47;2079075;27;46566;-60
2022/01/03 01:03:21;;;;;;;;;5.50;3.00;;;;;15.22;59.03;101366.72;2095868;27;47118;-59
2022/01/03 01:04:23;;;;;;;;;2.00;2.00;;;;;15.23;59.37;101362.25;2059680;28;47829;-61
2022/01/03 01:05:24;;;;;;;;;5.50;2.75;;;;;15.22;58.86;101363.16;2060063;28;48237;-60
2022/01/03 01:06:25;;;;;;;;;3.50;1.75;;;;;15.22;59.09;101364.03;2059518;28;47372;-60
2022/01/03 01:07:29;;;;;;;;;5.25;3.50;;;;;15.22;58.98;101356.03;2074360;27;47166;-60
2022/01/03 01:08:33;;;;;;;;;2.00;1.75;;;;;15.23;59.42;101357.78;2076943;27;47494;-58
2022/01/03 01:09:34;;;;;;;;;4.00;2.50;;;;;15.22;59.09;101356.03;2053956;28;48360;-61
2022/01/03 01:10:38;;;;;;;;;2.25;2.00;;;;;15.23;58.88;101359.56;2088920;28;47091;-59
2022/01/03 01:11:44;;;;;;;;;2.75;2.75;;;;;15.22;59.25;101363.16;2065147;28;47635;-60
2022/01/03 01:12:46;;;;;;;;;3.50;2.50;;;;;15.22;59.29;101360.50;2096773;27;48267;-59
2022/01/03 01:13:47;;;;;;;;;4.50;3.25;;;;;15.20;59.41;101368.56;2079293;27;48752;-60
2022/01/03 01:14:50;;;;;;;;;1.67;1.67;;;;;15.19;59.42;101349.91;2061609;28;48124;-59
2022/01/03 01:15:51;;;;;;;;;5.00;3.00;;;;;15.18;58.99;101356.19;2084327;27;47590;-60
2022/01/03 01:16:51;;;;;;;;;4.33;2.33;;;;;15.17;58.89;101362.44;2080804;28;47241;-59
2022/01/03 01:17:54;;;;;;;;;4.33;4.33;;;;;15.16;59.11;101360.69;2095696;27;45365;-61
2022/01/03 01:18:54;;;;;;;;;4.25;3.25;;;;;15.16;59.24;101358.91;2075845;27;47398;-59
2022/01/03 01:19:57;;;;;;;;;6.00;3.00;;;;;15.17;59.17;101368.66;2072235;28;46994;-60
2022/01/03 01:20:57;;;;;;;;;2.75;2.25;;;;;15.16;59.41;101353.56;2080160;27;48146;-61
2022/01/03 01:21:58;;;;;;;;;3.33;1.33;;;;;15.16;59.04;101353.56;2089777;28;46879;-60
2022/01/03 01:22:58;;;;;;;;;4.00;3.00;;;;;15.15;59.05;101358.94;2094498;27;47519;-58
2022/01/03 01:23:58;;;;;;;;;4.00;2.67;;;;;15.14;59.01;101357.19;2072934;27;47221;-60
2022/01/03 01:27:48;;;;;;;;;4.75;2.25;;;;;15.15;59.36;101364.28;2050898;27;48347;-60
2022/01/03 01:28:49;;;;;;;;;1.75;1.75;;;;;15.15;59.10;101356.28;2079814;27;47342;-60
2022/01/03 01:29:49;;;;;;;;;1.67;1.67;;;;;15.12;59.46;101343.88;2066853;28;46724;-59
2022/01/03 01:30:57;;;;;;;;;3.67;1.67;;;;;15.13;59.58;101352.78;2054976;28;46141;-59
2022/01/03 01:32:03;;;;;;;;;4.75;4.75;;;;;15.12;59.38;101345.66;2096160;28;48176;-59
2022/01/03 01:33:04;;;;;;;;;3.75;3.75;;;;;15.11;59.57;101352.78;2088136;28;47940;-59
2022/01/03 01:34:06;;;;;;;;;5.25;4.50;;;;;15.10;59.20;101353.72;2064541;28;47317;-58
2022/01/03 01:35:08;;;;;;;;;2.75;2.75;;;;;15.10;59.37;101355.50;2070466;27;47969;-58
2022/01/03 01:36:10;;;;;;;;;2.75;2.75;;;;;15.09;59.59;101340.41;2077791;28;48364;-58
2022/01/03 01:37:12;;;;;;;;;1.50;1.00;;;;;15.09;59.30;101340.41;2096711;27;47349;-58
2022/01/03 01:38:16;;;;;;;;;4.50;3.00;;;;;15.09;59.59;101351.97;2065034;28;48324;-59
2022/01/03 01:39:17;;;;;;;;;2.25;2.25;;;;;15.09;59.77;101346.63;2060720;28;47131;-59
2022/01/03 01:40:17;;;;;;;;;2.50;1.50;;;;;15.09;59.81;101341.28;2055871;28;47874;-59
2022/01/03 01:41:20;;;;;;;;;5.00;3.00;;;;;15.09;59.16;101337.72;2064288;28;48089;-59
2022/01/03 01:42:20;;;;;;;;;4.50;3.00;;;;;15.09;59.57;101335.06;2071327;28;47900;-60
2022/01/03 01:43:47;;;;;;;;;3.00;2.00;;;;;15.09;59.18;101337.72;2062257;27;48002;-59
2022/01/03 01:44:50;;;;;;;;;5.50;3.00;;;;;15.09;59.63;101337.72;2049813;28;47282;-59
2022/01/03 01:45:51;;;;;;;;;5.50;2.00;;;;;15.08;59.26;101344.00;2065463;28;48521;-59
2022/01/03 01:47:01;;;;;;;;;4.50;3.00;;;;;15.08;59.69;101342.19;2054101;28;48507;-60
2022/01/03 01:48:03;;;;;;;;;3.50;3.25;;;;;15.09;59.56;101349.28;2060809;28;48079;-59
2022/01/03 01:49:05;;;;;;;;;2.75;2.25;;;;;15.09;59.50;101348.41;2057683;28;47034;-60
2022/01/03 01:50:07;;;;;;;;;2.75;2.75;;;;;15.09;59.88;101345.75;2054024;28;47379;-60
2022/01/03 01:51:10;;;;;;;;;5.25;2.75;;;;;15.09;59.23;101345.75;2055473;28;47286;-60
2022/01/03 01:52:21;;;;;;;;;2.25;1.75;;;;;15.07;59.88;101340.47;2066924;28;47333;-60
2022/01/03 01:53:25;;;;;;;;;1.33;1.33;;;;;15.07;59.78;101328.88;2063685;27;48567;-59
2022/01/03 01:54:37;;;;;;;;;2.00;2.00;;;;;15.07;59.54;101332.44;2054445;27;46324;-60
2022/01/03 01:55:49;;;;;;;;;3.50;2.50;;;;;15.06;59.68;101328.00;2068048;28;47827;-60
2022/01/03 01:57:00;;;;;;;;;4.00;3.00;;;;;15.07;59.92;101340.47;2069402;28;45389;-59
2022/01/03 01:58:12;;;;;;;;;4.75;3.00;;;;;15.06;59.44;101341.38;2062153;27;47920;-60
2022/01/03 01:59:21;;;;;;;;;3.75;3.75;;;;;15.06;59.32;101344.06;2063082;27;48710;-60
2022/01/03 02:00:22;;;;;;;;;3.00;2.25;;;;;15.06;59.79;101337.84;2069147;28;46141;-60
2022/01/03 02:01:40;;;;;;;;;6.25;2.25;;;;;15.06;59.91;101327.13;2056159;28;47219;-60
2022/01/03 02:02:43;;;;;;;;;4.00;2.75;;;;;15.05;59.76;101328.94;2063479;28;47260;-59
2022/01/03 02:03:52;;;;;;;;;5.25;2.00;;;;;15.06;59.72;101324.47;2070878;28;47509;-59
2022/01/03 02:05:18;;;;;;;;;2.25;2.00;;;;;15.05;59.70;101330.72;2066060;28;47510;-60
2022/01/03 02:06:21;;;;;;;;;6.50;4.50;;;;;15.06;59.70;101337.84;2060819;28;47604;-59
2022/01/03 02:07:56;;;;;;;;;2.50;2.25;;;;;15.06;59.82;101332.47;2066396;27;48238;-59
2022/01/03 02:09:08;;;;;;;;;3.25;1.50;;;;;15.04;59.63;101329.88;2058145;27;48235;-61
2022/01/03 02:10:14;;;;;;;;;3.00;2.50;;;;;15.04;59.77;101327.19;2065261;28;48554;-59
2022/01/03 02:11:49;;;;;;;;;1.50;1.00;;;;;15.04;59.79;101342.34;2067809;27;47618;-60
2022/01/03 02:12:49;;;;;;;;;2.75;1.00;;;;;15.02;59.63;101340.59;2045886;28;46845;-59
2022/01/03 02:13:51;;;;;;;;;4.33;3.00;;;;;15.03;59.99;101338.81;2071087;28;47780;-60
2022/01/03 02:14:57;;;;;;;;;3.75;2.75;;;;;15.04;59.62;101342.34;2064074;28;46271;-61
2022/01/03 02:16:03;;;;;;;;;3.75;2.75;;;;;15.02;59.76;101348.63;2074503;27;45983;-60
2022/01/03 02:17:03;;;;;;;;;2.25;1.50;;;;;15.02;59.54;101350.41;2069036;27;45618;-61
2022/01/03 02:18:05;;;;;;;;;2.33;2.33;;;;;15.01;59.40;101349.53;2069129;27;47302;-59
2022/01/03 02:19:06;;;;;;;;;6.50;4.75;;;;;15.03;59.87;101346.81;2053469;28;47135;-61
2022/01/03 02:20:20;;;;;;;;;4.33;2.00;;;;;15.02;59.43;101350.41;2056149;27;47278;-59
2022/01/03 02:21:21;;;;;;;;;2.75;2.50;;;;;15.02;59.55;101348.63;2065477;28;46308;-60
2022/01/03 02:22:21;;;;;;;;;9.67;2.00;;;;;15.04;59.93;101350.38;2095878;27;47092;-59
2022/01/03 02:23:22;;;;;;;;;4.33;3.00;;;;;15.01;59.99;101346.88;2092852;28;47362;-60
2022/01/03 02:24:22;;;;;;;;;4.00;4.00;;;;;15.03;59.80;101341.47;2062524;27;46791;-59
2022/01/03 02:25:26;;;;;;;;;6.00;4.33;;;;;15.04;59.86;101334.34;2059584;27;47428;-59
2022/01/03 02:26:29;;;;;;;;;6.50;3.00;;;;;15.05;59.70;101341.44;2074170;28;46491;-60
2022/01/03 02:27:31;;;;;;;;;3.00;3.00;;;;;15.03;59.68;101338.81;2094385;27;47348;-58
2022/01/03 02:28:32;;;;;;;;;1.75;1.50;;;;;15.04;59.87;101339.69;2094008;28;46893;-59
2022/01/03 02:29:32;;;;;;;;;3.00;3.00;;;;;15.03;59.82;101338.81;2071219;28;47519;-59
2022/01/03 02:30:34;;;;;;;;;2.67;2.33;;;;;15.03;59.61;101338.81;2053944;28;47202;-59
2022/01/03 02:31:35;;;;;;;;;4.00;3.00;;;;;15.01;59.59;101341.53;2089464;28;46788;-59
2022/01/03 02:32:36;;;;;;;;;4.50;2.25;;;;;15.03;59.33;101344.16;2091979;27;48406;-59
2022/01/03 02:33:38;;;;;;;;;3.33;1.67;;;;;15.03;59.53;101354.84;2089200;27;47389;-61
2022/01/03 02:34:38;;;;;;;;;3.75;2.75;;;;;15.04;59.61;101355.72;2077199;28;46929;-60
2022/01/03 02:35:40;;;;;;;;;2.33;2.33;;;;;15.02;59.42;101351.28;2056497;28;47266;-59
2022/01/03 02:36:44;;;;;;;;;2.50;2.50;;;;;15.04;59.95;101361.94;2095628;27;46478;-61
2022/01/03 02:37:46;;;;;;;;;4.00;3.75;;;;;15.04;59.54;101369.09;2079938;27;48200;-59
2022/01/03 02:38:46;;;;;;;;;1.75;1.75;;;;;15.04;59.37;101364.63;2053256;28;48243;-60
2022/01/03 02:39:47;;;;;;;;;3.00;3.00;;;;;15.04;59.59;101369.97;2063399;28;48108;-60
2022/01/03 02:40:48;;;;;;;;;3.00;3.00;;;;;15.06;59.12;101372.59;2060326;28;47373;-60
2022/01/03 02:41:49;;;;;;;;;3.50;3.50;;;;;15.06;59.28;101365.44;2062251;27;48016;-61
2022/01/03 02:42:50;;;;;;;;;1.67;1.67;;;;;15.05;59.98;101363.69;2071129;28;48470;-60
2022/01/03 02:43:51;;;;;;;;;4.00;4.00;;;;;15.06;59.51;101353.88;2060339;28;47085;-59
2022/01/03 02:45:10;;;;;;;;;5.00;2.50;;;;;15.06;59.30;101368.09;2053879;28;46237;-60
2022/01/03 02:46:11;;;;;;;;;1.25;1.25;;;;;15.06;59.83;101357.41;2065681;28;48303;-59
2022/01/03 02:47:11;;;;;;;;;4.00;3.67;;;;;15.07;59.85;101355.63;2066054;28;47189;-58
2022/01/03 02:48:12;;;;;;;;;3.00;2.00;;;;;15.07;59.44;101353.81;2061964;28;47365;-59
2022/01/03 02:49:14;;;;;;;;;4.33;3.33;;;;;15.08;59.26;101350.22;2057208;28;48955;-60
2022/01/03 02:50:16;;;;;;;;;2.25;1.75;;;;;15.07;59.75;101350.28;2058642;28;48319;-61
2022/01/03 02:51:17;;;;;;;;;4.75;3.00;;;;;15.07;59.42;101343.13;2060622;27;48282;-59
2022/01/03 02:52:17;;;;;;;;;4.67;3.00;;;;;15.07;59.90;101335.09;2067681;28;47366;-59
2022/01/03 02:53:19;;;;;;;;;5.33;3.67;;;;;15.08;59.69;101349.34;2062027;27;48187;-59
2022/01/03 02:54:19;;;;;;;;;3.75;2.50;;;;;15.08;59.62;101335.97;2057965;28;47230;-60
2022/01/03 02:55:20;;;;;;;;;3.67;2.33;;;;;15.07;59.42;101348.47;2066818;28;47304;-59
2022/01/03 02:56:20;;;;;;;;;1.25;1.25;;;;;15.08;59.39;101358.25;2055505;28;48149;-59
2022/01/03 02:57:23;;;;;;;;;3.00;3.00;;;;;15.08;59.85;101352.91;2071118;27;47043;-59
2022/01/03 02:58:24;;;;;;;;;2.75;2.50;;;;;15.09;59.41;101354.66;2071462;28;48008;-60
2022/01/03 02:59:24;;;;;;;;;3.00;2.67;;;;;15.08;59.74;101352.91;2058641;27;47295;-58
2022/01/03 03:00:27;;;;;;;;;2.00;2.00;;;;;15.08;59.46;101352.91;2069429;28;48091;-59
2022/01/03 03:01:28;;;;;;;;;4.25;3.00;;;;;15.08;59.38;101358.25;2057931;28;47325;-59
2022/01/03 03:02:28;;;;;;;;;2.00;2.00;;;;;15.09;59.48;101359.13;2070333;27;47497;-59
2022/01/03 03:03:29;;;;;;;;;3.00;3.00;;;;;15.08;59.81;101362.72;2072467;28;46841;-59
2022/01/03 03:04:29;;;;;;;;;2.67;2.33;;;;;15.08;59.67;101354.69;2054820;28;47654;-61
2022/01/03 03:05:30;;;;;;;;;1.67;1.67;;;;;15.08;59.70;101354.69;2071041;28;48034;-59
2022/01/03 03:06:31;;;;;;;;;4.00;1.50;;;;;15.08;59.51;101349.34;2064466;28;48179;-59
2022/01/03 03:07:32;;;;;;;;;3.00;1.33;;;;;15.08;59.64;101350.22;2062876;27;47330;-59
2022/01/03 03:08:32;;;;;;;;;2.00;1.75;;;;;15.08;59.60;101350.22;2063161;28;46722;-59
2022/01/03 03:09:33;;;;;;;;;4.00;2.33;;;;;15.07;59.38;101343.13;2053154;28;47679;-60
2022/01/03 03:10:34;;;;;;;;;2.33;2.33;;;;;15.07;59.61;101332.44;2085601;28;48229;-59
2022/01/03 03:11:36;;;;;;;;;2.33;2.33;;;;;15.08;59.91;101335.97;2067838;27;47673;-60
2022/01/03 03:12:37;;;;;;;;;3.75;3.00;;;;;15.07;59.49;101335.09;2096137;27;48186;-60
2022/01/03 03:13:37;;;;;;;;;4.00;1.67;;;;;15.08;59.47;101327.97;2090414;27;47340;-60
2022/01/03 03:14:38;;;;;;;;;2.67;0.67;;;;;15.08;60.02;101336.84;2053087;28;47355;-59
2022/01/03 03:15:39;;;;;;;;;4.00;3.75;;;;;15.08;60.14;101327.97;2092894;27;47437;-59
2022/01/03 03:16:41;;;;;;;;;4.00;3.33;;;;;15.08;59.97;101320.81;2068518;28;46955;-59
2022/01/03 03:17:44;;;;;;;;;5.00;3.50;;;;;15.07;59.40;101316.41;2096349;27;47673;-58
2022/01/03 03:18:44;;;;;;;;;5.00;2.75;;;;;15.08;59.90;101322.63;2081480;28;47038;-60
2022/01/03 03:19:59;;;;;;;;;3.33;3.33;;;;;15.08;59.77;101320.81;2055929;28;48125;-59
2022/01/03 03:21:00;;;;;;;;;3.00;3.00;;;;;15.07;59.59;101321.75;2053529;27;47103;-58
2022/01/03 03:22:01;;;;;;;;;2.50;2.25;;;;;15.07;59.63;101324.41;2094133;28;47426;-59
2022/01/03 03:23:03;;;;;;;;;3.67;3.00;;;;;15.08;59.57;101323.50;2095434;28;47357;-59
2022/01/03 03:24:03;;;;;;;;;4.75;2.75;;;;;15.07;60.15;101319.06;2068073;28;47153;-61
2022/01/03 03:25:04;;;;;;;;;2.67;2.67;;;;;15.08;59.59;101315.47;2062426;28;48122;-59
2022/01/03 03:26:04;;;;;;;;;4.33;3.67;;;;;15.08;59.55;101315.47;2059660;28;47538;-59
2022/01/03 03:27:08;;;;;;;;;2.00;2.00;;;;;15.08;59.86;101328.84;2095967;27;47451;-59
2022/01/03 03:28:12;;;;;;;;;3.50;3.50;;;;;15.08;59.67;101322.63;2095010;27;47148;-60
2022/01/03 03:29:12;;;;;;;;;4.75;2.50;;;;;15.07;59.68;101319.06;2068912;27;47625;-60
2022/01/03 03:30:22;;;;;;;;;3.00;2.00;;;;;15.07;60.12;101321.75;2066858;27;47748;-60
2022/01/03 03:31:22;;;;;;;;;3.75;3.75;;;;;15.09;59.76;101321.69;2082207;28;47644;-60
2022/01/03 03:32:25;;;;;;;;;7.00;2.33;;;;;15.09;59.74;101327.91;2095208;27;47420;-60
2022/01/03 03:33:29;;;;;;;;;3.50;2.75;;;;;15.09;59.56;101327.91;2096342;27;46088;-59
2022/01/03 03:34:29;;;;;;;;;4.00;2.75;;;;;15.08;59.82;101323.50;2056476;28;47296;-58
2022/01/03 03:35:30;;;;;;;;;5.00;2.67;;;;;15.09;59.93;101329.72;2053679;28;46189;-59
2022/01/03 03:36:30;;;;;;;;;3.33;2.67;;;;;15.07;59.69;101324.41;2055438;28;48339;-59
2022/01/03 03:37:31;;;;;;;;;3.67;1.67;;;;;15.07;59.91;101324.41;2067214;28;47530;-59
2022/01/03 03:38:32;;;;;;;;;8.00;4.67;;;;;15.07;59.94;101321.75;2053166;27;47302;-59
2022/01/03 03:39:34;;;;;;;;;3.75;1.75;;;;;15.07;59.40;101320.88;2065880;28;47688;-59
2022/01/03 03:40:35;;;;;;;;;4.25;3.50;;;;;15.07;59.41;101329.75;2060644;28;47127;-57
2022/01/03 03:41:35;;;;;;;;;2.75;1.50;;;;;15.08;59.90;101326.16;2060812;27;47482;-58
2022/01/03 03:42:36;;;;;;;;;4.00;3.00;;;;;15.08;59.47;101322.63;2072962;28;46881;-59
2022/01/03 03:43:36;;;;;;;;;2.33;2.33;;;;;15.06;59.88;101320.00;2060234;28;47311;-61
2022/01/03 03:44:37;;;;;;;;;3.67;3.67;;;;;15.07;59.68;101321.75;2057971;28;48276;-59
2022/01/03 03:45:38;;;;;;;;;4.50;1.50;;;;;15.08;59.48;101327.97;2068202;28;45894;-59
2022/01/03 03:46:38;;;;;;;;;4.00;3.33;;;;;15.08;59.93;101323.50;2053406;28;47879;-58
2022/01/03 03:47:40;;;;;;;;;2.00;2.00;;;;;15.10;59.81;101326.13;2071249;27;47088;-59
2022/01/03 03:48:41;;;;;;;;;5.75;3.00;;;;;15.08;59.69;101318.16;2059521;28;47201;-59
2022/01/03 03:49:41;;;;;;;;;4.33;2.67;;;;;15.08;59.58;101318.16;2054423;28;48119;-59
2022/01/03 03:50:43;;;;;;;;;6.33;3.67;;;;;15.09;59.56;101321.69;2068037;28;47781;-60
2022/01/03 03:51:43;;;;;;;;;5.00;3.75;;;;;15.08;59.61;101318.16;2055467;28;47939;-59
2022/01/03 03:52:44;;;;;;;;;9.33;3.33;;;;;15.09;59.46;101322.56;2070832;28;48461;-60
2022/01/03 03:53:45;;;;;;;;;2.00;1.67;;;;;15.09;59.56;101316.34;2065810;28;47192;-60
2022/01/03 03:54:45;;;;;;;;;2.33;0.33;;;;;15.08;59.69;101318.16;2053453;28;48258;-59
2022/01/03 03:55:45;;;;;;;;;4.33;4.00;;;;;15.09;59.45;101311.88;2070870;28;47649;-60
2022/01/03 03:56:46;;;;;;;;;7.00;2.33;;;;;15.10;59.49;101315.41;2063298;28;46692;-60
2022/01/03 03:57:46;;;;;;;;;3.00;3.00;;;;;15.09;59.42;101317.22;2064245;27;46861;-59
2022/01/03 03:58:47;;;;;;;;;3.67;3.33;;;;;15.08;60.06;101312.78;2068945;28;47403;-59
2022/01/03 03:59:50;;;;;;;;;1.00;0.67;;;;;15.09;59.67;101311.88;2051382;28;47912;-59
2022/01/03 04:00:51;;;;;;;;;3.75;1.50;;;;;15.10;59.99;101316.28;2066779;27;47664;-59
2022/01/03 04:01:52;;;;;;;;;4.00;2.67;;;;;15.10;59.54;101310.94;2068329;28;47362;-60
2022/01/03 04:02:53;;;;;;;;;5.00;3.50;;;;;15.10;59.82;101310.06;2063229;27;48245;-59
2022/01/03 04:03:53;;;;;;;;;3.67;2.33;;;;;15.11;59.56;101307.34;2068460;28;47616;-59
2022/01/03 04:04:54;;;;;;;;;5.00;2.00;;;;;15.12;59.87;101310.91;2066597;28;47476;-60
2022/01/03 04:05:54;;;;;;;;;0.33;0.33;;;;;15.12;59.85;101300.19;2060682;28;48400;-59
2022/01/03 04:06:55;;;;;;;;;4.00;2.33;;;;;15.12;59.68;101302.88;2070033;28;48423;-60
2022/01/03 04:07:55;;;;;;;;;7.67;4.00;;;;;15.12;59.45;101308.22;2066270;27;47301;-59
2022/01/03 04:08:56;;;;;;;;;3.67;3.33;;;;;15.12;59.53;101297.53;2058012;27;48196;-59
2022/01/03 04:09:56;;;;;;;;;7.00;3.00;;;;;15.12;59.71;101297.53;2059748;28;47130;-59
2022/01/03 04:10:58;;;;;;;;;4.67;2.67;;;;;15.13;59.58;101296.63;2081229;27;47840;-60
2022/01/03 04:11:59;;;;;;;;;4.25;4.25;;;;;15.14;59.58;101295.72;2077845;28;48655;-60
2022/01/03 04:13:00;;;;;;;;;6.33;3.33;;;;;15.13;59.60;101283.28;2093899;27;47544;-59
2022/01/03 04:14:00;;;;;;;;;1.67;1.67;;;;;15.13;59.68;101294.84;2073970;28;47941;-60
2022/01/03 04:15:01;;;;;;;;;3.00;3.00;;;;;15.13;59.50;101288.63;2065911;28;47930;-60
2022/01/03 04:16:02;;;;;;;;;3.75;2.75;;;;;15.13;60.13;101286.81;2077579;28;46930;-59
2022/01/03 04:17:02;;;;;;;;;3.00;2.00;;;;;15.13;60.02;101285.94;2077857;28;47870;-60
2022/01/03 04:18:03;;;;;;;;;3.67;2.33;;;;;15.12;59.97;101282.41;2092317;28;47263;-59
2022/01/03 04:19:04;;;;;;;;;3.33;2.33;;;;;15.14;59.78;101283.22;2062695;28;48340;-59
2022/01/03 04:20:06;;;;;;;;;5.00;3.75;;;;;15.14;59.51;101275.19;2048403;28;46193;-60
2022/01/03 04:21:07;;;;;;;;;3.75;1.50;;;;;15.15;59.58;101281.41;2047360;28;47766;-60
2022/01/03 04:22:07;;;;;;;;;2.33;1.33;;;;;15.15;59.94;101273.41;2087354;28;47223;-59
2022/01/03 04:23:07;;;;;;;;;4.33;3.33;;;;;15.15;60.07;101279.63;2084422;28;46744;-60
2022/01/03 04:24:10;;;;;;;;;5.67;2.67;;;;;15.15;59.61;101290.31;2059287;28;47344;-59
2022/01/03 04:25:12;;;;;;;;;6.25;4.25;;;;;15.15;59.65;101282.28;2055113;28;47173;-60
2022/01/03 04:26:12;;;;;;;;;2.25;2.25;;;;;15.15;60.11;101279.63;2054856;28;48353;-60
2022/01/03 04:27:13;;;;;;;;;3.33;2.00;;;;;15.15;60.10;101268.06;2087663;28;47652;-60
2022/01/03 04:28:13;;;;;;;;;1.67;1.67;;;;;15.15;59.93;101268.06;2084542;28;47033;-60
2022/01/03 04:29:13;;;;;;;;;4.00;1.67;;;;;15.13;59.60;101267.22;2058536;28;47204;-60
2022/01/03 04:30:14;;;;;;;;;3.67;3.67;;;;;15.14;60.09;101267.19;2058344;28;47230;-60
2022/01/03 04:31:15;;;;;;;;;7.67;5.33;;;;;15.15;59.71;101270.72;2065242;28;47335;-60
2022/01/03 04:32:16;;;;;;;;;5.25;2.00;;;;;15.13;59.88;101261.88;2087286;28;46054;-59
2022/01/03 04:33:17;;;;;;;;;2.33;2.33;;;;;15.12;59.85;101268.13;2085146;28;47227;-59
2022/01/03 04:34:17;;;;;;;;;3.33;3.33;;;;;15.13;60.11;101269.91;2053413;28;47693;-59
2022/01/03 04:35:18;;;;;;;;;3.33;3.00;;;;;15.12;60.12;101269.03;2045228;28;47202;-60
2022/01/03 04:36:18;;;;;;;;;5.67;4.00;;;;;15.13;60.26;101267.22;2045555;28;46987;-60
2022/01/03 04:37:19;;;;;;;;;3.67;3.67;;;;;15.11;59.73;101261.91;2049093;28;47173;-59
2022/01/03 04:38:19;;;;;;;;;4.33;2.33;;;;;15.12;59.98;101260.09;2051967;28;48189;-59
2022/01/03 04:39:20;;;;;;;;;4.67;3.67;;;;;15.12;59.71;101257.44;2054090;28;47962;-60
2022/01/03 04:40:20;;;;;;;;;4.33;4.33;;;;;15.11;60.05;101261.91;2046134;28;47067;-60
2022/01/03 04:41:21;;;;;;;;;8.33;2.67;;;;;15.12;59.89;101257.44;2050992;28;48673;-60
2022/01/03 04:42:21;;;;;;;;;1.33;1.33;;;;;15.11;59.90;101264.56;2061291;27;45959;-59
2022/01/03 04:43:22;;;;;;;;;2.00;2.00;;;;;15.11;60.32;101259.22;2055383;28;46229;-60
2022/01/03 04:44:22;;;;;;;;;4.00;3.00;;;;;15.09;60.05;101255.72;2048976;28;48287;-59
2022/01/03 04:45:22;;;;;;;;;5.00;2.67;;;;;15.10;60.17;101256.59;2048539;28;47968;-59
2022/01/03 04:46:23;;;;;;;;;5.67;2.00;;;;;15.09;59.71;101260.22;2051640;28;48077;-58
2022/01/03 04:47:24;;;;;;;;;3.67;2.67;;;;;15.09;59.95;101255.72;2056343;28;46360;-60
2022/01/03 04:48:25;;;;;;;;;3.00;3.00;;;;;15.09;59.65;101254.88;2053528;28;47984;-59
2022/01/03 04:49:25;;;;;;;;;2.33;2.00;;;;;15.09;60.34;101257.53;2046289;28;47324;-59
2022/01/03 04:50:26;;;;;;;;;4.33;2.33;;;;;15.10;59.95;101259.28;2054687;28;48152;-59
2022/01/03 04:51:26;;;;;;;;;4.33;3.00;;;;;15.09;60.00;101257.53;2046718;28;46236;-60
2022/01/03 04:52:27;;;;;;;;;4.00;2.33;;;;;15.08;59.82;101259.34;2057891;28;46894;-58
2022/01/03 04:53:27;;;;;;;;;2.33;2.00;;;;;15.07;59.86;101251.38;2056691;28;47071;-59
2022/01/03 04:54:28;;;;;;;;;1.67;1.67;;;;;15.07;59.77;101254.03;2047064;28;48447;-60